OEFFB LIEO-LIRN
Flight info
| Callsign | OEFFB |
|---|---|
| Flight time | 0h 43m |
| Altitude | 35000 |
| Route | ATNET DCT TURMO DCT ROTUN DCT PNZ |
| Aircraft | C750/M-SBDE3FGHRWXY/S |
Departure
| Time | 2026-05-06 22:05 |
|---|---|
| Airport | Olbia Costa Smeralda Airport (LIEO) |
Arrival
| Time | 2026-05-06 22:48 |
|---|---|
| Airport | Naples International Airport (LIRN) |
| Time | Latitude | Longitude | Altitude | Speed | Heading |
|---|---|---|---|---|---|
| 2026-05-06 22:02 | 40.89459 | 9.50410 | 42 ft | 0 kts | 123° |
| 2026-05-06 22:04 | 40.89458 | 9.50412 | 42 ft | 3 kts | 125° |
| 2026-05-06 22:04 | 40.89447 | 9.50424 | 42 ft | 0 kts | 146° |
| 2026-05-06 22:04 | 40.89355 | 9.50445 | 43 ft | 19 kts | 188° |
| 2026-05-06 22:04 | 40.89273 | 9.50549 | 44 ft | 24 kts | 101° |
| 2026-05-06 22:05 | 40.89424 | 9.50905 | 40 ft | 95 kts | 53° |
| 2026-05-06 22:05 | 40.89973 | 9.51960 | 61 ft | 167 kts | 55° |
| 2026-05-06 22:05 | 40.90603 | 9.53220 | 821 ft | 167 kts | 56° |
| 2026-05-06 22:05 | 40.91056 | 9.54066 | 1341 ft | 174 kts | 53° |
| 2026-05-06 22:06 | 40.92011 | 9.55992 | 2287 ft | 195 kts | 53° |
| 2026-05-06 22:06 | 40.92856 | 9.57480 | 3181 ft | 208 kts | 51° |
| 2026-05-06 22:06 | 40.93727 | 9.59042 | 4167 ft | 218 kts | 53° |
| 2026-05-06 22:06 | 40.94611 | 9.60715 | 5224 ft | 225 kts | 54° |
| 2026-05-06 22:07 | 40.95512 | 9.62423 | 6300 ft | 228 kts | 54° |
| 2026-05-06 22:07 | 40.96437 | 9.64160 | 7342 ft | 233 kts | 54° |
| 2026-05-06 22:07 | 40.97375 | 9.65932 | 8424 ft | 238 kts | 55° |
| 2026-05-06 22:07 | 40.97943 | 9.68000 | 9381 ft | 247 kts | 88° |
| 2026-05-06 22:08 | 40.97549 | 9.70183 | 10373 ft | 244 kts | 119° |
| 2026-05-06 22:08 | 40.96659 | 9.72080 | 11292 ft | 248 kts | 126° |
| 2026-05-06 22:08 | 40.95666 | 9.74071 | 11739 ft | 272 kts | 126° |
| 2026-05-06 22:08 | 40.94591 | 9.76284 | 12123 ft | 298 kts | 125° |
| 2026-05-06 22:09 | 40.93433 | 9.78707 | 12425 ft | 324 kts | 125° |
| 2026-05-06 22:09 | 40.92170 | 9.81324 | 12616 ft | 351 kts | 125° |
| 2026-05-06 22:09 | 40.90827 | 9.84095 | 12901 ft | 369 kts | 124° |
| 2026-05-06 22:09 | 40.89454 | 9.86945 | 13843 ft | 368 kts | 124° |
| 2026-05-06 22:10 | 40.88068 | 9.89816 | 14482 ft | 373 kts | 125° |
| 2026-05-06 22:10 | 40.86659 | 9.92718 | 15131 ft | 377 kts | 125° |
| 2026-05-06 22:10 | 40.85232 | 9.95658 | 15788 ft | 382 kts | 125° |
| 2026-05-06 22:10 | 40.83791 | 9.98630 | 16457 ft | 387 kts | 125° |
| 2026-05-06 22:11 | 40.82329 | 10.01640 | 17157 ft | 392 kts | 126° |
| 2026-05-06 22:11 | 40.80848 | 10.04685 | 17848 ft | 397 kts | 126° |
| 2026-05-06 22:11 | 40.79345 | 10.07772 | 18530 ft | 402 kts | 126° |
| 2026-05-06 22:11 | 40.77915 | 10.10975 | 19087 ft | 411 kts | 118° |
| 2026-05-06 22:12 | 40.77053 | 10.14612 | 19731 ft | 421 kts | 104° |
| 2026-05-06 22:12 | 40.76844 | 10.18508 | 20376 ft | 430 kts | 90° |
| 2026-05-06 22:12 | 40.77081 | 10.22471 | 21005 ft | 436 kts | 86° |
| 2026-05-06 22:12 | 40.77350 | 10.26474 | 21671 ft | 441 kts | 86° |
| 2026-05-06 22:13 | 40.77607 | 10.30538 | 22315 ft | 447 kts | 87° |
| 2026-05-06 22:13 | 40.77854 | 10.34651 | 22950 ft | 452 kts | 87° |
| 2026-05-06 22:13 | 40.78105 | 10.38757 | 23562 ft | 458 kts | 87° |
| 2026-05-06 22:13 | 40.78370 | 10.42973 | 24115 ft | 462 kts | 87° |
| 2026-05-06 22:14 | 40.78632 | 10.47219 | 24691 ft | 465 kts | 87° |
| 2026-05-06 22:14 | 40.78890 | 10.51499 | 25253 ft | 469 kts | 87° |
| 2026-05-06 22:14 | 40.79148 | 10.55809 | 25812 ft | 472 kts | 87° |
| 2026-05-06 22:14 | 40.79321 | 10.58678 | 26179 ft | 474 kts | 87° |
| 2026-05-06 22:15 | 40.79670 | 10.64486 | 27006 ft | 477 kts | 88° |
| 2026-05-06 22:15 | 40.79841 | 10.67390 | 27352 ft | 479 kts | 88° |
| 2026-05-06 22:15 | 40.80100 | 10.71797 | 27905 ft | 483 kts | 88° |
| 2026-05-06 22:15 | 40.80445 | 10.77680 | 28627 ft | 488 kts | 88° |
| 2026-05-06 22:16 | 40.80618 | 10.80660 | 28982 ft | 491 kts | 88° |
| 2026-05-06 22:16 | 40.80879 | 10.85177 | 29513 ft | 494 kts | 88° |
| 2026-05-06 22:16 | 40.81140 | 10.89723 | 30032 ft | 498 kts | 88° |
| 2026-05-06 22:16 | 40.81401 | 10.94294 | 30489 ft | 501 kts | 88° |
| 2026-05-06 22:17 | 40.81662 | 10.98895 | 30982 ft | 503 kts | 88° |
| 2026-05-06 22:17 | 40.81921 | 11.03489 | 31716 ft | 499 kts | 88° |
| 2026-05-06 22:17 | 40.82176 | 11.08053 | 32374 ft | 498 kts | 88° |
| 2026-05-06 22:17 | 40.82427 | 11.12599 | 33075 ft | 495 kts | 89° |
| 2026-05-06 22:18 | 40.82677 | 11.17129 | 33812 ft | 492 kts | 89° |
| 2026-05-06 22:18 | 40.82923 | 11.21627 | 34449 ft | 490 kts | 89° |
| 2026-05-06 22:18 | 40.83162 | 11.26047 | 34953 ft | 487 kts | 89° |
| 2026-05-06 22:18 | 40.83406 | 11.30627 | 34971 ft | 500 kts | 89° |
| 2026-05-06 22:19 | 40.83648 | 11.35197 | 34988 ft | 512 kts | 89° |
| 2026-05-06 22:19 | 40.83902 | 11.39949 | 34993 ft | 524 kts | 89° |
| 2026-05-06 22:19 | 40.84416 | 11.49712 | 35006 ft | 541 kts | 89° |
| 2026-05-06 22:20 | 40.84932 | 11.59720 | 35004 ft | 549 kts | 89° |
| 2026-05-06 22:20 | 40.85444 | 11.69813 | 34990 ft | 550 kts | 89° |
| 2026-05-06 22:21 | 40.85943 | 11.79838 | 34998 ft | 551 kts | 89° |
| 2026-05-06 22:21 | 40.86438 | 11.89941 | 34998 ft | 551 kts | 89° |
| 2026-05-06 22:22 | 40.86923 | 12.00046 | 34997 ft | 551 kts | 89° |
| 2026-05-06 22:22 | 40.87400 | 12.10145 | 35000 ft | 549 kts | 90° |
| 2026-05-06 22:23 | 40.87862 | 12.20153 | 35000 ft | 549 kts | 90° |
| 2026-05-06 22:23 | 40.88320 | 12.30220 | 35000 ft | 549 kts | 90° |
| 2026-05-06 22:24 | 40.88783 | 12.40300 | 35005 ft | 549 kts | 90° |
| 2026-05-06 22:24 | 40.89243 | 12.50392 | 34956 ft | 544 kts | 90° |
| 2026-05-06 22:25 | 40.89465 | 12.55260 | 34263 ft | 518 kts | 90° |
| 2026-05-06 22:25 | 40.89675 | 12.59924 | 33608 ft | 498 kts | 91° |
| 2026-05-06 22:25 | 40.89867 | 12.64444 | 32969 ft | 491 kts | 91° |
| 2026-05-06 22:25 | 40.90053 | 12.68925 | 32331 ft | 495 kts | 91° |
| 2026-05-06 22:26 | 40.90250 | 12.73483 | 31680 ft | 498 kts | 91° |
| 2026-05-06 22:26 | 40.90452 | 12.78071 | 31009 ft | 501 kts | 91° |
| 2026-05-06 22:26 | 40.90648 | 12.82688 | 30360 ft | 502 kts | 91° |
| 2026-05-06 22:26 | 40.90838 | 12.87271 | 29659 ft | 495 kts | 91° |
| 2026-05-06 22:27 | 40.91025 | 12.91794 | 29011 ft | 491 kts | 91° |
| 2026-05-06 22:27 | 40.90967 | 12.96251 | 28327 ft | 480 kts | 102° |
| 2026-05-06 22:27 | 40.90197 | 13.00493 | 27747 ft | 472 kts | 110° |
| 2026-05-06 22:27 | 40.89295 | 13.04650 | 27137 ft | 468 kts | 111° |
| 2026-05-06 22:28 | 40.88384 | 13.08774 | 26521 ft | 465 kts | 110° |
| 2026-05-06 22:28 | 40.87516 | 13.12828 | 25917 ft | 463 kts | 110° |
| 2026-05-06 22:28 | 40.86656 | 13.16904 | 25308 ft | 457 kts | 110° |
| 2026-05-06 22:28 | 40.85787 | 13.20934 | 24709 ft | 454 kts | 110° |
| 2026-05-06 22:29 | 40.84911 | 13.24939 | 24113 ft | 452 kts | 110° |
| 2026-05-06 22:29 | 40.84047 | 13.28917 | 23506 ft | 449 kts | 110° |
| 2026-05-06 22:29 | 40.83198 | 13.32863 | 22879 ft | 445 kts | 110° |
| 2026-05-06 22:29 | 40.82348 | 13.36783 | 22303 ft | 441 kts | 110° |
| 2026-05-06 22:30 | 40.81499 | 13.40658 | 21723 ft | 437 kts | 110° |
| 2026-05-06 22:30 | 40.80667 | 13.44463 | 21159 ft | 433 kts | 110° |
| 2026-05-06 22:30 | 40.79836 | 13.48271 | 20588 ft | 430 kts | 110° |
| 2026-05-06 22:30 | 40.79008 | 13.52054 | 20022 ft | 430 kts | 110° |
| 2026-05-06 22:31 | 40.78178 | 13.55828 | 19470 ft | 426 kts | 110° |
| 2026-05-06 22:31 | 40.77357 | 13.59569 | 18907 ft | 420 kts | 109° |
| 2026-05-06 22:31 | 40.76568 | 13.63171 | 18366 ft | 398 kts | 109° |
| 2026-05-06 22:31 | 40.75815 | 13.66595 | 17823 ft | 379 kts | 110° |
| 2026-05-06 22:32 | 40.75220 | 13.70041 | 17261 ft | 391 kts | 97° |
| 2026-05-06 22:32 | 40.75517 | 13.73587 | 16960 ft | 389 kts | 76° |
| 2026-05-06 22:32 | 40.76634 | 13.76859 | 16976 ft | 392 kts | 59° |
| 2026-05-06 22:32 | 40.78085 | 13.79923 | 16994 ft | 394 kts | 57° |
| 2026-05-06 22:33 | 40.79548 | 13.82937 | 16990 ft | 395 kts | 57° |
| 2026-05-06 22:33 | 40.81008 | 13.86010 | 16982 ft | 395 kts | 58° |
| 2026-05-06 22:33 | 40.82463 | 13.89119 | 17025 ft | 398 kts | 58° |
| 2026-05-06 22:33 | 40.83931 | 13.92231 | 16807 ft | 397 kts | 58° |
| 2026-05-06 22:34 | 40.85390 | 13.95316 | 16481 ft | 394 kts | 58° |
| 2026-05-06 22:34 | 40.86796 | 13.98423 | 16137 ft | 392 kts | 59° |
| 2026-05-06 22:34 | 40.88168 | 14.01512 | 15796 ft | 389 kts | 59° |
| 2026-05-06 22:34 | 40.89555 | 14.04566 | 15457 ft | 386 kts | 59° |
| 2026-05-06 22:35 | 40.90927 | 14.07553 | 15139 ft | 384 kts | 59° |
| 2026-05-06 22:35 | 40.92285 | 14.10546 | 14805 ft | 378 kts | 59° |
| 2026-05-06 22:35 | 40.93190 | 14.12558 | 14579 ft | 376 kts | 59° |
| 2026-05-06 22:35 | 40.94962 | 14.16485 | 14135 ft | 373 kts | 59° |
| 2026-05-06 22:36 | 40.96292 | 14.19421 | 13811 ft | 371 kts | 59° |
| 2026-05-06 22:36 | 40.97613 | 14.22345 | 13459 ft | 369 kts | 59° |
| 2026-05-06 22:36 | 40.98498 | 14.24309 | 13238 ft | 367 kts | 59° |
| 2026-05-06 22:36 | 41.00226 | 14.28146 | 12806 ft | 365 kts | 59° |
| 2026-05-06 22:37 | 41.01525 | 14.31028 | 12492 ft | 363 kts | 59° |
| 2026-05-06 22:37 | 41.02821 | 14.33895 | 12170 ft | 362 kts | 59° |
| 2026-05-06 22:37 | 41.04111 | 14.36749 | 11857 ft | 360 kts | 60° |
| 2026-05-06 22:37 | 41.05391 | 14.39590 | 11530 ft | 358 kts | 60° |
| 2026-05-06 22:38 | 41.06664 | 14.42418 | 11221 ft | 357 kts | 60° |
| 2026-05-06 22:38 | 41.07992 | 14.45187 | 11050 ft | 350 kts | 56° |
| 2026-05-06 22:38 | 41.09315 | 14.47920 | 11013 ft | 353 kts | 60° |
| 2026-05-06 22:38 | 41.10554 | 14.50729 | 10991 ft | 353 kts | 60° |
| 2026-05-06 22:39 | 41.11796 | 14.53403 | 10983 ft | 325 kts | 58° |
| 2026-05-06 22:39 | 41.12961 | 14.55778 | 10973 ft | 297 kts | 58° |
| 2026-05-06 22:39 | 41.13959 | 14.58078 | 10921 ft | 283 kts | 72° |
| 2026-05-06 22:39 | 41.14153 | 14.60651 | 10375 ft | 281 kts | 103° |
| 2026-05-06 22:40 | 41.13428 | 14.63069 | 9188 ft | 286 kts | 129° |
| 2026-05-06 22:40 | 41.11913 | 14.64743 | 7791 ft | 291 kts | 162° |
| 2026-05-06 22:40 | 41.10030 | 14.65008 | 7586 ft | 247 kts | 183° |
| 2026-05-06 22:40 | 41.08440 | 14.64822 | 7984 ft | 212 kts | 192° |
| 2026-05-06 22:41 | 41.05691 | 14.63316 | 7358 ft | 198 kts | 217° |
| 2026-05-06 22:41 | 41.04609 | 14.62153 | 7011 ft | 210 kts | 220° |
| 2026-05-06 22:41 | 41.03579 | 14.60752 | 6395 ft | 210 kts | 229° |
| 2026-05-06 22:42 | 41.02833 | 14.59306 | 6542 ft | 178 kts | 235° |
| 2026-05-06 22:42 | 41.02166 | 14.57902 | 6147 ft | 186 kts | 235° |
| 2026-05-06 22:42 | 41.01457 | 14.56453 | 5564 ft | 188 kts | 234° |
| 2026-05-06 22:42 | 41.00743 | 14.55002 | 5098 ft | 186 kts | 235° |
| 2026-05-06 22:43 | 41.00091 | 14.53560 | 4781 ft | 179 kts | 238° |
| 2026-05-06 22:43 | 40.99461 | 14.52167 | 4483 ft | 174 kts | 236° |
| 2026-05-06 22:43 | 40.98825 | 14.50816 | 4248 ft | 172 kts | 236° |
| 2026-05-06 22:43 | 40.98185 | 14.49458 | 3930 ft | 169 kts | 236° |
| 2026-05-06 22:44 | 40.97573 | 14.48155 | 3674 ft | 171 kts | 236° |
| 2026-05-06 22:44 | 40.96938 | 14.46806 | 3434 ft | 174 kts | 236° |
| 2026-05-06 22:44 | 40.96296 | 14.45445 | 3182 ft | 174 kts | 236° |
| 2026-05-06 22:44 | 40.95655 | 14.44082 | 2923 ft | 174 kts | 236° |
| 2026-05-06 22:45 | 40.95014 | 14.42716 | 2664 ft | 175 kts | 237° |
| 2026-05-06 22:45 | 40.94385 | 14.41374 | 2409 ft | 160 kts | 237° |
| 2026-05-06 22:45 | 40.93847 | 14.40227 | 2172 ft | 135 kts | 237° |
| 2026-05-06 22:45 | 40.93372 | 14.39217 | 1984 ft | 126 kts | 237° |
| 2026-05-06 22:46 | 40.92910 | 14.38236 | 1799 ft | 125 kts | 238° |
| 2026-05-06 22:46 | 40.92451 | 14.37260 | 1614 ft | 125 kts | 237° |
| 2026-05-06 22:46 | 40.91992 | 14.36274 | 1368 ft | 127 kts | 238° |
| 2026-05-06 22:46 | 40.91553 | 14.35311 | 1225 ft | 124 kts | 238° |
| 2026-05-06 22:47 | 40.91097 | 14.34333 | 1039 ft | 126 kts | 236° |
| 2026-05-06 22:47 | 40.90624 | 14.33331 | 837 ft | 130 kts | 237° |
| 2026-05-06 22:47 | 40.90138 | 14.32312 | 664 ft | 131 kts | 235° |
| 2026-05-06 22:47 | 40.89648 | 14.31292 | 463 ft | 132 kts | 236° |
| 2026-05-06 22:48 | 40.89166 | 14.30263 | 282 ft | 131 kts | 236° |
| 2026-05-06 22:48 | 40.88724 | 14.29338 | 254 ft | 108 kts | 238° |
| 2026-05-06 22:48 | 40.88455 | 14.28771 | 278 ft | 28 kts | 238° |
| 2026-05-06 22:48 | 40.88425 | 14.28708 | 280 ft | 0 kts | 237° |